sensor_id;sensor_type;location;lat;lon;timestamp;pressure;altitude;pressure_sealevel;temperature;humidity
6668;BME280;3370;47.712;9.082;2024-03-07T00:01:50;97435.88;;;3.62;100.00
6668;BME280;3370;47.712;9.082;2024-03-07T00:04:37;97437.59;;;3.61;100.00
6668;BME280;3370;47.712;9.082;2024-03-07T00:07:23;97434.16;;;3.62;100.00
6668;BME280;3370;47.712;9.082;2024-03-07T00:10:09;97431.69;;;3.59;100.00
6668;BME280;3370;47.712;9.082;2024-03-07T00:12:56;97424.06;;;3.59;100.00
6668;BME280;3370;47.712;9.082;2024-03-07T00:15:42;97431.66;;;3.61;100.00
6668;BME280;3370;47.712;9.082;2024-03-07T00:18:29;97429.97;;;3.60;100.00
6668;BME280;3370;47.712;9.082;2024-03-07T00:21:15;97423.25;;;3.56;100.00
6668;BME280;3370;47.712;9.082;2024-03-07T00:24:01;97424.06;;;3.58;100.00
6668;BME280;3370;47.712;9.082;2024-03-07T00:26:47;97421.53;;;3.58;100.00
6668;BME280;3370;47.712;9.082;2024-03-07T00:29:35;97427.47;;;3.57;100.00
6668;BME280;3370;47.712;9.082;2024-03-07T00:32:24;97427.44;;;3.58;100.00
6668;BME280;3370;47.712;9.082;2024-03-07T00:35:10;97428.34;;;3.56;100.00
6668;BME280;3370;47.712;9.082;2024-03-07T00:37:56;97425.78;;;3.57;100.00
6668;BME280;3370;47.712;9.082;2024-03-07T00:40:43;97422.34;;;3.61;100.00
6668;BME280;3370;47.712;9.082;2024-03-07T00:43:30;97422.34;;;3.61;100.00
6668;BME280;3370;47.712;9.082;2024-03-07T00:46:16;97429.06;;;3.65;100.00
6668;BME280;3370;47.712;9.082;2024-03-07T00:49:03;97423.13;;;3.67;100.00
6668;BME280;3370;47.712;9.082;2024-03-07T00:51:50;97414.59;;;3.71;100.00
6668;BME280;3370;47.712;9.082;2024-03-07T00:54:36;97420.59;;;3.63;100.00
6668;BME280;3370;47.712;9.082;2024-03-07T00:57:22;97417.22;;;3.64;100.00
6668;BME280;3370;47.712;9.082;2024-03-07T01:00:09;97408.72;;;3.64;100.00
6668;BME280;3370;47.712;9.082;2024-03-07T01:02:59;97413.81;;;3.65;100.00
6668;BME280;3370;47.712;9.082;2024-03-07T01:05:45;97406.94;;;3.74;100.00
6668;BME280;3370;47.712;9.082;2024-03-07T01:08:32;97406.88;;;3.77;100.00
6668;BME280;3370;47.712;9.082;2024-03-07T01:11:18;97408.56;;;3.79;100.00
6668;BME280;3370;47.712;9.082;2024-03-07T01:14:04;97405.09;;;3.83;100.00
6668;BME280;3370;47.712;9.082;2024-03-07T01:16:50;97409.41;;;3.77;100.00
6668;BME280;3370;47.712;9.082;2024-03-07T01:19:36;97393.34;;;3.73;100.00
6668;BME280;3370;47.712;9.082;2024-03-07T01:22:23;97392.50;;;3.74;100.00
6668;BME280;3370;47.712;9.082;2024-03-07T01:25:10;97398.50;;;3.72;100.00
6668;BME280;3370;47.712;9.082;2024-03-07T01:27:56;97400.16;;;3.73;100.00
6668;BME280;3370;47.712;9.082;2024-03-07T01:30:42;97390.78;;;3.75;100.00
6668;BME280;3370;47.712;9.082;2024-03-07T01:33:28;97387.41;;;3.74;100.00
6668;BME280;3370;47.712;9.082;2024-03-07T01:36:14;97395.88;;;3.75;100.00
6668;BME280;3370;47.712;9.082;2024-03-07T01:39:00;97397.63;;;3.70;100.00
6668;BME280;3370;47.712;9.082;2024-03-07T01:41:49;97387.44;;;3.73;100.00
6668;BME280;3370;47.712;9.082;2024-03-07T01:44:35;97387.41;;;3.76;100.00
6668;BME280;3370;47.712;9.082;2024-03-07T01:47:22;97381.50;;;3.74;100.00
6668;BME280;3370;47.712;9.082;2024-03-07T01:50:08;97373.06;;;3.72;100.00
6668;BME280;3370;47.712;9.082;2024-03-07T01:52:54;97374.78;;;3.68;100.00
6668;BME280;3370;47.712;9.082;2024-03-07T01:55:41;97365.47;;;3.65;100.00
6668;BME280;3370;47.712;9.082;2024-03-07T01:58:30;97366.31;;;3.66;100.00
6668;BME280;3370;47.712;9.082;2024-03-07T02:01:19;97371.38;;;3.68;100.00
6668;BME280;3370;47.712;9.082;2024-03-07T02:04:05;97361.19;;;3.71;100.00
6668;BME280;3370;47.712;9.082;2024-03-07T02:06:51;97365.44;;;3.69;100.00
6668;BME280;3370;47.712;9.082;2024-03-07T02:09:39;97359.47;;;3.73;100.00
6668;BME280;3370;47.712;9.082;2024-03-07T02:12:25;97352.75;;;3.65;100.00
6668;BME280;3370;47.712;9.082;2024-03-07T02:15:12;97354.41;;;3.70;100.00
6668;BME280;3370;47.712;9.082;2024-03-07T02:17:59;97348.34;;;3.78;100.00
6668;BME280;3370;47.712;9.082;2024-03-07T02:20:46;97348.31;;;3.81;100.00
6668;BME280;3370;47.712;9.082;2024-03-07T02:23:32;97342.44;;;3.79;100.00
6668;BME280;3370;47.712;9.082;2024-03-07T02:26:18;97338.19;;;3.77;100.00
6668;BME280;3370;47.712;9.082;2024-03-07T02:33:05;97332.22;;;3.81;100.00
6668;BME280;3370;47.712;9.082;2024-03-07T02:35:55;97331.38;;;3.80;100.00
6668;BME280;3370;47.712;9.082;2024-03-07T02:38:41;97331.41;;;3.79;100.00
6668;BME280;3370;47.712;9.082;2024-03-07T02:41:27;97326.38;;;3.74;100.00
6668;BME280;3370;47.712;9.082;2024-03-07T02:44:14;97334.72;;;3.82;100.00
6668;BME280;3370;47.712;9.082;2024-03-07T02:47:00;97331.34;;;3.83;100.00
6668;BME280;3370;47.712;9.082;2024-03-07T02:49:49;97328.81;;;3.82;100.00
6668;BME280;3370;47.712;9.082;2024-03-07T02:52:36;97331.34;;;3.83;100.00
6668;BME280;3370;47.712;9.082;2024-03-07T02:55:22;97327.97;;;3.83;100.00
6668;BME280;3370;47.712;9.082;2024-03-07T02:58:08;97327.97;;;3.81;100.00
6668;BME280;3370;47.712;9.082;2024-03-07T03:00:59;97327.03;;;3.87;100.00
6668;BME280;3370;47.712;9.082;2024-03-07T03:03:45;97328.78;;;3.85;100.00
6668;BME280;3370;47.712;9.082;2024-03-07T03:06:31;97328.88;;;3.79;100.00
6668;BME280;3370;47.712;9.082;2024-03-07T03:09:17;97327.97;;;3.83;100.00
6668;BME280;3370;47.712;9.082;2024-03-07T03:12:04;97333.03;;;3.84;100.00
6668;BME280;3370;47.712;9.082;2024-03-07T03:14:50;97321.13;;;3.87;100.00
6668;BME280;3370;47.712;9.082;2024-03-07T03:17:36;97324.44;;;3.92;100.00
6668;BME280;3370;47.712;9.082;2024-03-07T03:20:22;97325.31;;;3.89;100.00
6668;BME280;3370;47.712;9.082;2024-03-07T03:23:11;97328.69;;;3.91;100.00
6668;BME280;3370;47.712;9.082;2024-03-07T03:25:59;97322.72;;;3.95;100.00
6668;BME280;3370;47.712;9.082;2024-03-07T03:28:45;97321.03;;;3.93;100.00
6668;BME280;3370;47.712;9.082;2024-03-07T03:31:31;97315.13;;;3.89;100.00
6668;BME280;3370;47.712;9.082;2024-03-07T03:34:17;97316.78;;;3.93;100.00
6668;BME280;3370;47.712;9.082;2024-03-07T03:37:03;97315.13;;;3.89;100.00
6668;BME280;3370;47.712;9.082;2024-03-07T03:39:50;97314.34;;;3.86;100.00
6668;BME280;3370;47.712;9.082;2024-03-07T03:42:41;97318.63;;;3.82;100.00
6668;BME280;3370;47.712;9.082;2024-03-07T03:45:27;97317.91;;;3.74;100.00
6668;BME280;3370;47.712;9.082;2024-03-07T03:48:14;97313.69;;;3.71;100.00
6668;BME280;3370;47.712;9.082;2024-03-07T03:51:00;97318.84;;;3.67;100.00
6668;BME280;3370;47.712;9.082;2024-03-07T03:53:46;97318.00;;;3.66;100.00
6668;BME280;3370;47.712;9.082;2024-03-07T03:56:33;97314.59;;;3.67;100.00
6668;BME280;3370;47.712;9.082;2024-03-07T03:59:19;97311.94;;;3.75;100.00
6668;BME280;3370;47.712;9.082;2024-03-07T04:02:05;97311.06;;;3.79;100.00
6668;BME280;3370;47.712;9.082;2024-03-07T04:04:54;97311.81;;;3.84;100.00
6668;BME280;3370;47.712;9.082;2024-03-07T04:07:41;97315.25;;;3.81;100.00
6668;BME280;3370;47.712;9.082;2024-03-07T04:10:30;97311.81;;;3.84;100.00
6668;BME280;3370;47.712;9.082;2024-03-07T04:13:16;97311.91;;;3.78;100.00
6668;BME280;3370;47.712;9.082;2024-03-07T04:16:02;97304.31;;;3.75;100.00
6668;BME280;3370;47.712;9.082;2024-03-07T04:18:48;97300.97;;;3.71;100.00
6668;BME280;3370;47.712;9.082;2024-03-07T04:21:34;97301.78;;;3.75;100.00
6668;BME280;3370;47.712;9.082;2024-03-07T04:24:20;97301.84;;;3.72;100.00
6668;BME280;3370;47.712;9.082;2024-03-07T04:27:06;97299.19;;;3.78;100.00
6668;BME280;3370;47.712;9.082;2024-03-07T04:29:53;97300.03;;;3.77;100.00
6668;BME280;3370;47.712;9.082;2024-03-07T04:32:39;97289.19;;;3.64;100.00
6668;BME280;3370;47.712;9.082;2024-03-07T04:35:27;97285.06;;;3.55;100.00
6668;BME280;3370;47.712;9.082;2024-03-07T04:38:13;97292.75;;;3.54;100.00
6668;BME280;3370;47.712;9.082;2024-03-07T04:41:00;97284.31;;;3.50;100.00
6668;BME280;3370;47.712;9.082;2024-03-07T04:43:46;97288.59;;;3.48;100.00
6668;BME280;3370;47.712;9.082;2024-03-07T04:46:32;97284.34;;;3.47;100.00
6668;BME280;3370;47.712;9.082;2024-03-07T04:49:18;97287.81;;;3.43;100.00
6668;BME280;3370;47.712;9.082;2024-03-07T04:52:05;97290.34;;;3.43;100.00
6668;BME280;3370;47.712;9.082;2024-03-07T04:54:51;97286.88;;;3.49;100.00
6668;BME280;3370;47.712;9.082;2024-03-07T04:57:38;97285.88;;;3.59;100.00
6668;BME280;3370;47.712;9.082;2024-03-07T05:00:25;97287.53;;;3.64;100.00
6668;BME280;3370;47.712;9.082;2024-03-07T05:03:11;97282.34;;;3.71;100.00
6668;BME280;3370;47.712;9.082;2024-03-07T05:05:57;97287.38;;;3.75;100.00
6668;BME280;3370;47.712;9.082;2024-03-07T05:08:46;97274.59;;;3.77;100.00
6668;BME280;3370;47.712;9.082;2024-03-07T05:11:35;97278.88;;;3.76;100.00
6668;BME280;3370;47.712;9.082;2024-03-07T05:14:21;97279.69;;;3.78;100.00
6668;BME280;3370;47.712;9.082;2024-03-07T05:17:08;97281.41;;;3.78;100.00
6668;BME280;3370;47.712;9.082;2024-03-07T05:19:56;97283.13;;;3.76;100.00
6668;BME280;3370;47.712;9.082;2024-03-07T05:22:42;97284.78;;;3.77;100.00
6668;BME280;3370;47.712;9.082;2024-03-07T05:25:38;97282.25;;;3.77;100.00
6668;BME280;3370;47.712;9.082;2024-03-07T05:28:25;97270.53;;;3.68;100.00
6668;BME280;3370;47.712;9.082;2024-03-07T05:31:11;97268.00;;;3.67;100.00
6668;BME280;3370;47.712;9.082;2024-03-07T05:33:58;97275.56;;;3.70;100.00
6668;BME280;3370;47.712;9.082;2024-03-07T05:36:47;97268.03;;;3.63;100.00
6668;BME280;3370;47.712;9.082;2024-03-07T05:39:33;97268.00;;;3.65;100.00
6668;BME280;3370;47.712;9.082;2024-03-07T05:42:20;97266.28;;;3.65;100.00
6668;BME280;3370;47.712;9.082;2024-03-07T05:45:06;97273.16;;;3.60;100.00
6668;BME280;3370;47.712;9.082;2024-03-07T05:47:53;97271.41;;;3.62;100.00
6668;BME280;3370;47.712;9.082;2024-03-07T05:50:39;97275.69;;;3.60;100.00
6668;BME280;3370;47.712;9.082;2024-03-07T05:53:25;97269.72;;;3.64;100.00
6668;BME280;3370;47.712;9.082;2024-03-07T05:56:11;97269.72;;;3.64;100.00
6668;BME280;3370;47.712;9.082;2024-03-07T05:58:57;97267.09;;;3.71;100.00
6668;BME280;3370;47.712;9.082;2024-03-07T06:01:43;97267.84;;;3.77;100.00
6668;BME280;3370;47.712;9.082;2024-03-07T06:04:29;97271.22;;;3.78;100.00
6668;BME280;3370;47.712;9.082;2024-03-07T06:07:17;97270.31;;;3.80;100.00
6668;BME280;3370;47.712;9.082;2024-03-07T06:10:04;97266.00;;;3.87;100.00
6668;BME280;3370;47.712;9.082;2024-03-07T06:12:55;97270.19;;;3.90;100.00
6668;BME280;3370;47.712;9.082;2024-03-07T06:15:45;97264.22;;;3.92;100.00
6668;BME280;3370;47.712;9.082;2024-03-07T06:18:32;97266.84;;;3.86;100.00
6668;BME280;3370;47.712;9.082;2024-03-07T06:21:18;97260.88;;;3.90;100.00
6668;BME280;3370;47.712;9.082;2024-03-07T06:24:04;97266.00;;;3.87;100.00
6668;BME280;3370;47.712;9.082;2024-03-07T06:26:50;97262.63;;;3.85;100.00
6668;BME280;3370;47.712;9.082;2024-03-07T06:29:45;97260.06;;;3.87;100.00
6668;BME280;3370;47.712;9.082;2024-03-07T06:32:31;97264.38;;;3.83;100.00
6668;BME280;3370;47.712;9.082;2024-03-07T06:35:17;97261.84;;;3.80;100.00
6668;BME280;3370;47.712;9.082;2024-03-07T06:38:09;97266.13;;;3.79;100.00
6668;BME280;3370;47.712;9.082;2024-03-07T06:40:56;97258.47;;;3.81;100.00
6668;BME280;3370;47.712;9.082;2024-03-07T06:43:43;97268.78;;;3.72;100.00
6668;BME280;3370;47.712;9.082;2024-03-07T06:46:30;97262.81;;;3.73;100.00
6668;BME280;3370;47.712;9.082;2024-03-07T06:49:18;97268.63;;;3.81;100.00
6668;BME280;3370;47.712;9.082;2024-03-07T06:52:04;97269.53;;;3.77;100.00
6668;BME280;3370;47.712;9.082;2024-03-07T06:54:50;97268.69;;;3.76;100.00
6668;BME280;3370;47.712;9.082;2024-03-07T06:57:37;97271.31;;;3.72;100.00
6668;BME280;3370;47.712;9.082;2024-03-07T07:00:23;97267.91;;;3.73;100.00
6668;BME280;3370;47.712;9.082;2024-03-07T07:03:09;97276.28;;;3.81;100.00
6668;BME280;3370;47.712;9.082;2024-03-07T07:05:58;97269.34;;;3.89;100.00
6668;BME280;3370;47.712;9.082;2024-03-07T07:08:44;97273.59;;;3.89;100.00
6668;BME280;3370;47.712;9.082;2024-03-07T07:11:30;97270.94;;;3.96;100.00
6668;BME280;3370;47.712;9.082;2024-03-07T07:14:17;97271.03;;;3.90;100.00
6668;BME280;3370;47.712;9.082;2024-03-07T07:17:06;97271.03;;;3.90;100.00
6668;BME280;3370;47.712;9.082;2024-03-07T07:19:52;97275.09;;;4.02;100.00
6668;BME280;3370;47.712;9.082;2024-03-07T07:22:38;97270.88;;;4.02;100.00
6668;BME280;3370;47.712;9.082;2024-03-07T07:25:24;97272.53;;;4.02;100.00
6668;BME280;3370;47.712;9.082;2024-03-07T07:28:13;97277.56;;;4.07;100.00
6668;BME280;3370;47.712;9.082;2024-03-07T07:30:59;97274.16;;;4.08;100.00
6668;BME280;3370;47.712;9.082;2024-03-07T07:33:45;97272.38;;;4.14;100.00
6668;BME280;3370;47.712;9.082;2024-03-07T07:36:31;97273.03;;;4.26;100.00
6668;BME280;3370;47.712;9.082;2024-03-07T07:39:18;97271.38;;;4.23;100.00
6668;BME280;3370;47.712;9.082;2024-03-07T07:42:04;97262.78;;;4.30;100.00
6668;BME280;3370;47.712;9.082;2024-03-07T07:44:50;97262.56;;;4.43;100.00
6668;BME280;3370;47.712;9.082;2024-03-07T07:47:42;97253.19;;;4.45;100.00
6668;BME280;3370;47.712;9.082;2024-03-07T07:50:29;97262.56;;;4.43;100.00
6668;BME280;3370;47.712;9.082;2024-03-07T07:53:15;97259.97;;;4.46;100.00
6668;BME280;3370;47.712;9.082;2024-03-07T07:56:01;97253.13;;;4.48;100.00
6668;BME280;3370;47.712;9.082;2024-03-07T07:58:48;97250.50;;;4.54;100.00
6668;BME280;3370;47.712;9.082;2024-03-07T08:01:34;97241.22;;;4.50;100.00
6668;BME280;3370;47.712;9.082;2024-03-07T08:04:21;97245.41;;;4.52;100.00
6668;BME280;3370;47.712;9.082;2024-03-07T08:07:07;97242.81;;;4.57;100.00
6668;BME280;3370;47.712;9.082;2024-03-07T08:09:53;97239.38;;;4.58;100.00
6668;BME280;3370;47.712;9.082;2024-03-07T08:12:40;97242.56;;;4.69;100.00
6668;BME280;3370;47.712;9.082;2024-03-07T08:15:30;97230.47;;;4.80;100.00
6668;BME280;3370;47.712;9.082;2024-03-07T08:18:16;97242.22;;;4.88;100.00
6668;BME280;3370;47.712;9.082;2024-03-07T08:21:03;97237.84;;;4.93;100.00
6668;BME280;3370;47.712;9.082;2024-03-07T08:23:50;97233.53;;;4.96;100.00
6668;BME280;3370;47.712;9.082;2024-03-07T08:26:37;97236.81;;;5.03;100.00
6668;BME280;3370;47.712;9.082;2024-03-07T08:29:23;97233.28;;;5.10;100.00
6668;BME280;3370;47.712;9.082;2024-03-07T08:32:10;97237.44;;;5.14;100.00
6668;BME280;3370;47.712;9.082;2024-03-07T08:34:56;97233.03;;;5.23;100.00
6668;BME280;3370;47.712;9.082;2024-03-07T08:37:48;97229.47;;;5.31;100.00
6668;BME280;3370;47.712;9.082;2024-03-07T08:40:40;97223.28;;;5.40;100.00
6668;BME280;3370;47.712;9.082;2024-03-07T08:43:26;97222.28;;;5.47;100.00
6668;BME280;3370;47.712;9.082;2024-03-07T08:46:13;97226.53;;;5.48;100.00
6668;BME280;3370;47.712;9.082;2024-03-07T08:48:59;97218.94;;;5.45;100.00
6668;BME280;3370;47.712;9.082;2024-03-07T08:51:45;97227.47;;;5.44;100.00
6668;BME280;3370;47.712;9.082;2024-03-07T08:54:31;97227.47;;;5.44;100.00
6668;BME280;3370;47.712;9.082;2024-03-07T08:57:17;97229.16;;;5.45;100.00
6668;BME280;3370;47.712;9.082;2024-03-07T09:00:08;97230.84;;;5.46;100.00
6668;BME280;3370;47.712;9.082;2024-03-07T09:02:58;97220.50;;;5.52;100.00
6668;BME280;3370;47.712;9.082;2024-03-07T09:05:44;97217.66;;;5.65;100.00
6668;BME280;3370;47.712;9.082;2024-03-07T09:08:32;97220.50;;;5.90;100.00
6668;BME280;3370;47.712;9.082;2024-03-07T09:11:18;97217.78;;;5.98;99.66
6668;BME280;3370;47.712;9.082;2024-03-07T09:14:04;97222.66;;;6.07;97.64
6668;BME280;3370;47.712;9.082;2024-03-07T09:16:55;97223.72;;;5.98;97.20
6668;BME280;3370;47.712;9.082;2024-03-07T09:19:42;97216.13;;;5.97;96.65
6668;BME280;3370;47.712;9.082;2024-03-07T09:22:28;97216.28;;;5.87;97.90
6668;BME280;3370;47.712;9.082;2024-03-07T09:25:15;97214.56;;;5.89;97.78
6668;BME280;3370;47.712;9.082;2024-03-07T09:28:02;97211.28;;;5.84;98.40
6668;BME280;3370;47.712;9.082;2024-03-07T09:30:48;97211.34;;;5.81;99.39
6668;BME280;3370;47.712;9.082;2024-03-07T09:33:34;97212.22;;;5.80;100.00
6668;BME280;3370;47.712;9.082;2024-03-07T09:36:20;97212.88;;;5.88;100.00
6668;BME280;3370;47.712;9.082;2024-03-07T09:39:09;97209.34;;;5.92;100.00
6668;BME280;3370;47.712;9.082;2024-03-07T09:41:55;97210.25;;;5.91;100.00
6668;BME280;3370;47.712;9.082;2024-03-07T09:44:42;97208.38;;;6.00;100.00
6668;BME280;3370;47.712;9.082;2024-03-07T09:47:30;97200.47;;;6.09;100.00
6668;BME280;3370;47.712;9.082;2024-03-07T09:50:19;97199.50;;;6.14;99.42
6668;BME280;3370;47.712;9.082;2024-03-07T09:53:07;97207.97;;;6.17;98.61
6668;BME280;3370;47.712;9.082;2024-03-07T09:55:54;97204.59;;;6.14;97.70
6668;BME280;3370;47.712;9.082;2024-03-07T09:58:41;97202.00;;;6.16;97.05
6668;BME280;3370;47.712;9.082;2024-03-07T10:01:33;97198.66;;;6.14;97.28
6668;BME280;3370;47.712;9.082;2024-03-07T10:04:29;97198.66;;;6.14;97.70
6668;BME280;3370;47.712;9.082;2024-03-07T10:07:17;97192.59;;;6.18;97.28
6668;BME280;3370;47.712;9.082;2024-03-07T10:10:04;97181.34;;;6.25;97.14
6668;BME280;3370;47.712;9.082;2024-03-07T10:12:56;97188.63;;;6.41;95.38
6668;BME280;3370;47.712;9.082;2024-03-07T10:15:44;97184.38;;;6.40;94.84
6668;BME280;3370;47.712;9.082;2024-03-07T10:18:31;97186.88;;;6.43;94.75
6668;BME280;3370;47.712;9.082;2024-03-07T10:21:21;97187.75;;;6.42;95.92
6668;BME280;3370;47.712;9.082;2024-03-07T10:24:08;97186.06;;;6.41;96.91
6668;BME280;3370;47.712;9.082;2024-03-07T10:26:56;97189.41;;;6.43;96.85
6668;BME280;3370;47.712;9.082;2024-03-07T10:29:47;97185.81;;;6.50;95.78
6668;BME280;3370;47.712;9.082;2024-03-07T10:32:33;97171.19;;;6.57;94.45
6668;BME280;3370;47.712;9.082;2024-03-07T10:35:23;97170.00;;;6.68;91.92
6668;BME280;3370;47.712;9.082;2024-03-07T10:38:12;97165.78;;;6.67;91.89
6668;BME280;3370;47.712;9.082;2024-03-07T10:41:00;97166.66;;;6.66;93.22
6668;BME280;3370;47.712;9.082;2024-03-07T10:43:48;97170.00;;;6.68;93.99
6668;BME280;3370;47.712;9.082;2024-03-07T10:46:37;97175.97;;;6.69;92.82
6668;BME280;3370;47.712;9.082;2024-03-07T10:49:25;97167.19;;;6.78;91.25
6668;BME280;3370;47.712;9.082;2024-03-07T10:52:23;97177.53;;;6.73;91.06
6668;BME280;3370;47.712;9.082;2024-03-07T10:59:20;97171.38;;;6.80;91.78
6668;BME280;3370;47.712;9.082;2024-03-07T11:05:10;97165.53;;;6.77;91.54
6668;BME280;3370;47.712;9.082;2024-03-07T11:07:59;97163.75;;;6.79;91.58
6668;BME280;3370;47.712;9.082;2024-03-07T11:10:48;97157.50;;;6.89;90.13
6668;BME280;3370;47.712;9.082;2024-03-07T11:13:35;97158.25;;;6.93;88.75
6668;BME280;3370;47.712;9.082;2024-03-07T11:16:23;97152.28;;;6.92;88.53
6668;BME280;3370;47.712;9.082;2024-03-07T11:19:30;97156.25;;;7.02;87.40
6668;BME280;3370;47.712;9.082;2024-03-07T11:22:31;97151.13;;;7.04;86.75
6668;BME280;3370;47.712;9.082;2024-03-07T11:25:19;97147.69;;;7.03;87.28
6668;BME280;3370;47.712;9.082;2024-03-07T11:28:07;97135.56;;;7.10;87.57
6668;BME280;3370;47.712;9.082;2024-03-07T11:30:53;97141.94;;;7.25;84.67
6668;BME280;3370;47.712;9.082;2024-03-07T11:33:40;97133.44;;;7.24;84.21
6668;BME280;3370;47.712;9.082;2024-03-07T11:36:46;97138.31;;;7.32;85.01
6668;BME280;3370;47.712;9.082;2024-03-07T11:39:49;97135.81;;;7.30;86.44
6668;BME280;3370;47.712;9.082;2024-03-07T11:42:46;97134.88;;;7.33;88.01
6668;BME280;3370;47.712;9.082;2024-03-07T11:45:33;97130.34;;;7.41;87.28
6668;BME280;3370;47.712;9.082;2024-03-07T11:48:24;97126.94;;;7.42;85.65
6668;BME280;3370;47.712;9.082;2024-03-07T11:51:19;97122.75;;;7.40;85.55
6668;BME280;3370;47.712;9.082;2024-03-07T11:54:11;97124.56;;;7.36;85.58
6668;BME280;3370;47.712;9.082;2024-03-07T11:57:00;97123.50;;;7.43;84.34
6668;BME280;3370;47.712;9.082;2024-03-07T11:59:47;97122.00;;;7.36;84.53
6668;BME280;3370;47.712;9.082;2024-03-07T12:02:38;97112.63;;;7.37;85.05
6668;BME280;3370;47.712;9.082;2024-03-07T12:05:24;97119.50;;;7.35;84.52
6668;BME280;3370;47.712;9.082;2024-03-07T12:08:13;97105.84;;;7.34;84.27
6668;BME280;3370;47.712;9.082;2024-03-07T12:10:59;97100.69;;;7.36;85.57
6668;BME280;3370;47.712;9.082;2024-03-07T12:13:45;97101.44;;;7.39;85.37
6668;BME280;3370;47.712;9.082;2024-03-07T12:16:31;97100.59;;;7.39;85.45
6668;BME280;3370;47.712;9.082;2024-03-07T12:19:17;97099.91;;;7.34;85.21
6668;BME280;3370;47.712;9.082;2024-03-07T12:22:08;97098.88;;;7.39;83.29
6668;BME280;3370;47.712;9.082;2024-03-07T12:25:03;97091.53;;;7.28;83.56
6668;BME280;3370;47.712;9.082;2024-03-07T12:28:10;97085.63;;;7.26;84.45
6668;BME280;3370;47.712;9.082;2024-03-07T12:30:56;97087.38;;;7.26;84.01
6668;BME280;3370;47.712;9.082;2024-03-07T12:33:42;97093.56;;;7.19;84.34
6668;BME280;3370;47.712;9.082;2024-03-07T12:36:33;97086.59;;;7.24;83.22
6668;BME280;3370;47.712;9.082;2024-03-07T12:39:34;97089.47;;;7.13;84.41
6668;BME280;3370;47.712;9.082;2024-03-07T12:42:32;97080.25;;;7.07;85.11
6668;BME280;3370;47.712;9.082;2024-03-07T12:45:19;97086.09;;;7.13;84.72
6668;BME280;3370;47.712;9.082;2024-03-07T12:48:07;97082.03;;;7.05;84.54
6668;BME280;3370;47.712;9.082;2024-03-07T12:50:53;97082.03;;;7.05;84.22
6668;BME280;3370;47.712;9.082;2024-03-07T12:53:39;97065.75;;;7.08;85.03
6668;BME280;3370;47.712;9.082;2024-03-07T12:56:25;97063.25;;;7.06;85.01
6668;BME280;3370;47.712;9.082;2024-03-07T12:59:11;97069.91;;;7.10;84.10
6668;BME280;3370;47.712;9.082;2024-03-07T13:01:57;97075.25;;;7.04;85.20
6668;BME280;3370;47.712;9.082;2024-03-07T13:04:43;97065.72;;;7.09;85.71
6668;BME280;3370;47.712;9.082;2024-03-07T13:07:30;97066.69;;;7.05;85.39
6668;BME280;3370;47.712;9.082;2024-03-07T13:10:17;97069.38;;;7.01;84.75
6668;BME280;3370;47.712;9.082;2024-03-07T13:13:06;97064.34;;;6.98;84.95
6668;BME280;3370;47.712;9.082;2024-03-07T13:15:52;97060.06;;;7.00;85.54
6668;BME280;3370;47.712;9.082;2024-03-07T13:18:40;97055.47;;;7.09;84.91
6668;BME280;3370;47.712;9.082;2024-03-07T13:21:27;97049.38;;;7.14;83.66
6668;BME280;3370;47.712;9.082;2024-03-07T13:24:14;97056.25;;;7.12;84.72
6668;BME280;3370;47.712;9.082;2024-03-07T13:27:00;97059.56;;;7.15;85.22
6668;BME280;3370;47.712;9.082;2024-03-07T13:29:46;97059.31;;;7.23;84.43
6668;BME280;3370;47.712;9.082;2024-03-07T13:32:35;97052.63;;;7.19;84.29
6668;BME280;3370;47.712;9.082;2024-03-07T13:35:23;97050.94;;;7.18;84.69
6668;BME280;3370;47.712;9.082;2024-03-07T13:38:10;97058.56;;;7.19;84.78
6668;BME280;3370;47.712;9.082;2024-03-07T13:40:56;97052.44;;;7.25;84.22
6668;BME280;3370;47.712;9.082;2024-03-07T13:43:49;97050.69;;;7.27;84.04
6668;BME280;3370;47.712;9.082;2024-03-07T13:46:36;97055.88;;;7.24;83.84
6668;BME280;3370;47.712;9.082;2024-03-07T13:49:23;97050.91;;;7.19;84.43
6668;BME280;3370;47.712;9.082;2024-03-07T13:52:09;97044.09;;;7.20;85.27
6668;BME280;3370;47.712;9.082;2024-03-07T13:55:04;97048.22;;;7.24;85.20
6668;BME280;3370;47.712;9.082;2024-03-07T13:57:57;97047.31;;;7.25;85.28
6668;BME280;3370;47.712;9.082;2024-03-07T14:05:33;97049.22;;;7.20;85.82
6668;BME280;3370;47.712;9.082;2024-03-07T14:09:02;97051.06;;;7.15;87.06
6668;BME280;3370;47.712;9.082;2024-03-07T14:12:17;97045.84;;;7.18;86.33
6668;BME280;3370;47.712;9.082;2024-03-07T14:30:05;97041.13;;;7.05;87.85
6668;BME280;3370;47.712;9.082;2024-03-07T14:33:00;97044.56;;;7.04;87.87
6668;BME280;3370;47.712;9.082;2024-03-07T14:36:09;97043.84;;;6.99;88.17
6668;BME280;3370;47.712;9.082;2024-03-07T14:38:58;97041.91;;;7.07;86.81
6668;BME280;3370;47.712;9.082;2024-03-07T14:41:57;97042.19;;;6.98;86.96
6668;BME280;3370;47.712;9.082;2024-03-07T14:44:44;97037.25;;;6.92;86.78
6668;BME280;3370;47.712;9.082;2024-03-07T14:47:34;97039.97;;;6.87;87.10
6668;BME280;3370;47.712;9.082;2024-03-07T14:50:21;97040.09;;;6.83;87.41
6668;BME280;3370;47.712;9.082;2024-03-07T14:53:08;97042.66;;;6.83;87.54
6668;BME280;3370;47.712;9.082;2024-03-07T14:55:54;97042.81;;;6.78;88.03
6668;BME280;3370;47.712;9.082;2024-03-07T14:58:41;97040.19;;;6.80;87.25
6668;BME280;3370;47.712;9.082;2024-03-07T15:01:28;97040.34;;;6.75;87.47
6668;BME280;3370;47.712;9.082;2024-03-07T15:04:16;97045.22;;;6.83;87.25
6668;BME280;3370;47.712;9.082;2024-03-07T15:07:02;97036.00;;;6.77;87.82
6668;BME280;3370;47.712;9.082;2024-03-07T15:09:50;97040.38;;;6.74;88.45
6668;BME280;3370;47.712;9.082;2024-03-07T15:12:36;97034.59;;;6.67;88.75
6668;BME280;3370;47.712;9.082;2024-03-07T15:15:22;97028.63;;;6.68;88.57
6668;BME280;3370;47.712;9.082;2024-03-07T15:18:14;97025.41;;;6.61;89.15
6668;BME280;3370;47.712;9.082;2024-03-07T15:21:00;97022.97;;;6.58;89.45
6668;BME280;3370;47.712;9.082;2024-03-07T15:23:46;97021.22;;;6.59;89.85
6668;BME280;3370;47.712;9.082;2024-03-07T15:26:33;97018.53;;;6.63;88.35
6668;BME280;3370;47.712;9.082;2024-03-07T15:29:20;97024.69;;;6.56;87.57
6668;BME280;3370;47.712;9.082;2024-03-07T15:32:08;97015.53;;;6.49;87.77
6668;BME280;3370;47.712;9.082;2024-03-07T15:34:54;97021.59;;;6.46;87.99
6668;BME280;3370;47.712;9.082;2024-03-07T15:37:40;97012.31;;;6.44;88.17
6668;BME280;3370;47.712;9.082;2024-03-07T15:40:32;97016.53;;;6.45;87.88
6668;BME280;3370;47.712;9.082;2024-03-07T15:43:19;97009.63;;;6.47;88.06
6668;BME280;3370;47.712;9.082;2024-03-07T15:46:05;97010.28;;;6.55;85.99
6668;BME280;3370;47.712;9.082;2024-03-07T15:48:52;97011.41;;;6.45;85.80
6668;BME280;3370;47.712;9.082;2024-03-07T15:51:38;97009.13;;;6.36;86.13